Time;durP1;ratioP1;P1;durP2;ratioP2;P2;SDS_P1;SDS_P2;PMS_P1;PMS_P2;Temp;Humidity;BMP_temperature;BMP_pressure;BME280_temperature;BME280_humidity;BME280_pressure;Samples;Min_cycle;Max_cycle;Signal;HPM_P1;HPM_P2
2021/07/11 00:00:49;;;;;;;;;4.25;3.00;;;;;17.28;65.16;100949.28;4975318;28;65376;-60
2021/07/11 00:03:14;;;;;;;;;3.75;3.75;;;;;17.29;65.20;100948.28;4975683;28;59809;-60
2021/07/11 00:05:40;;;;;;;;;4.00;4.00;;;;;17.31;65.29;100955.13;4975866;28;45807;-61
2021/07/11 00:08:05;;;;;;;;;4.00;3.75;;;;;17.34;65.29;100949.47;4975256;28;64226;-60
2021/07/11 00:10:31;;;;;;;;;5.25;4.00;;;;;17.32;65.46;100950.63;4975367;28;60892;-60
2021/07/11 00:12:56;;;;;;;;;4.00;4.00;;;;;17.33;65.52;100955.78;4974989;28;69631;-60
2021/07/11 00:15:23;;;;;;;;;4.00;3.75;;;;;17.32;65.66;100950.63;4975820;28;46169;-60
2021/07/11 00:17:50;;;;;;;;;5.00;4.00;;;;;17.33;65.37;100949.63;4975978;28;45348;-60
2021/07/11 00:20:15;;;;;;;;;5.00;3.25;;;;;17.32;65.44;100940.84;4977683;27;45328;-61
2021/07/11 00:22:40;;;;;;;;;3.75;3.75;;;;;17.35;65.62;100948.47;4975626;28;51412;-60
2021/07/11 00:25:07;;;;;;;;;4.00;4.00;;;;;17.38;65.65;100935.84;4975623;28;46127;-60
2021/07/11 00:27:32;;;;;;;;;4.00;4.00;;;;;17.41;65.74;100944.28;4974380;28;45913;-60
2021/07/11 00:29:58;;;;;;;;;5.00;4.00;;;;;17.43;65.68;100936.16;4975991;28;45387;-59
2021/07/11 00:32:23;;;;;;;;;4.75;3.00;;;;;17.45;65.66;100940.28;4975228;28;60199;-60
2021/07/11 00:34:49;;;;;;;;;4.00;3.75;;;;;17.45;65.54;100934.16;4975572;28;46130;-60
2021/07/11 00:37:14;;;;;;;;;5.00;4.00;;;;;17.43;65.81;100941.47;4974785;28;66152;-59
2021/07/11 00:39:39;;;;;;;;;5.00;5.00;;;;;17.42;65.88;100942.47;4977266;28;45331;-60
2021/07/11 00:42:05;;;;;;;;;6.25;4.00;;;;;17.41;66.00;100938.16;4973774;28;63615;-60
2021/07/11 00:44:30;;;;;;;;;6.00;6.00;;;;;17.41;65.77;100936.31;4975500;28;45874;-59
2021/07/11 00:46:56;;;;;;;;;3.50;3.25;;;;;17.41;65.88;100932.84;4975535;28;45359;-60
2021/07/11 00:49:21;;;;;;;;;3.00;3.00;;;;;17.40;65.71;100932.00;4973739;28;60832;-60
2021/07/11 00:51:46;;;;;;;;;3.00;3.00;;;;;17.41;66.02;100932.84;4975682;28;45543;-60
2021/07/11 00:54:12;;;;;;;;;7.25;6.00;;;;;17.40;65.81;100931.19;4974498;28;69834;-59
2021/07/11 00:56:38;;;;;;;;;4.75;4.00;;;;;17.41;65.88;100932.84;4974848;28;59874;-60
2021/07/11 00:59:04;;;;;;;;;5.75;4.00;;;;;17.39;66.13;100932.19;4974352;28;45418;-60
2021/07/11 01:01:33;;;;;;;;;3.50;3.00;;;;;17.37;65.54;100916.41;4973311;28;70432;-61
2021/07/11 01:04:01;;;;;;;;;3.75;3.00;;;;;17.38;65.83;100922.56;4958338;28;46300;-60
2021/07/11 01:06:26;;;;;;;;;6.25;4.00;;;;;17.35;65.63;100924.56;4975350;28;45897;-60
2021/07/11 01:08:55;;;;;;;;;3.75;3.50;;;;;17.33;65.51;100926.56;4973378;28;65228;-60
2021/07/11 01:11:22;;;;;;;;;3.25;3.25;;;;;17.35;65.87;100915.75;4974155;28;45278;-60
2021/07/11 01:13:48;;;;;;;;;6.75;5.00;;;;;17.35;65.81;100913.09;4973802;28;46336;-60
2021/07/11 01:16:15;;;;;;;;;2.25;2.00;;;;;17.32;65.97;100911.63;4973864;28;45308;-60
2021/07/11 01:18:42;;;;;;;;;5.00;3.25;;;;;17.31;66.31;100912.63;4975452;28;45252;-60
2021/07/11 01:21:12;;;;;;;;;4.00;4.00;;;;;17.29;66.15;100908.47;4975003;28;45493;-60
2021/07/11 01:23:52;;;;;;;;;5.00;4.75;;;;;17.30;66.28;100905.66;4974001;28;45309;-60
2021/07/11 01:26:18;;;;;;;;;4.00;4.00;;;;;17.31;66.11;100909.97;4975166;28;45907;-60
2021/07/11 01:28:43;;;;;;;;;4.00;4.00;;;;;17.28;65.80;100912.97;4975147;28;45791;-60
2021/07/11 01:31:09;;;;;;;;;4.75;3.00;;;;;17.27;66.06;100902.50;4975141;28;45419;-60
2021/07/11 01:33:36;;;;;;;;;3.00;3.00;;;;;17.25;66.07;100905.34;4974864;28;45263;-61
2021/07/11 01:36:02;;;;;;;;;4.50;3.25;;;;;17.24;66.02;100901.03;4973679;28;45391;-60
2021/07/11 01:38:27;;;;;;;;;4.00;4.00;;;;;17.18;66.26;100904.34;4974900;28;45480;-60
2021/07/11 01:40:52;;;;;;;;;3.75;3.00;;;;;17.14;66.15;100900.38;4972935;28;63865;-60
2021/07/11 01:43:19;;;;;;;;;3.00;3.00;;;;;17.09;66.10;100897.41;4973885;28;74536;-60
2021/07/11 01:45:47;;;;;;;;;4.75;4.00;;;;;17.06;66.21;100894.09;4973684;28;45416;-60
2021/07/11 01:48:13;;;;;;;;;4.50;4.00;;;;;17.07;66.21;100894.94;4973802;28;45455;-59
2021/07/11 01:50:38;;;;;;;;;3.00;3.00;;;;;17.06;66.38;100893.28;4974846;28;45370;-60
2021/07/11 01:53:03;;;;;;;;;5.00;4.00;;;;;17.01;66.23;100885.00;4973557;28;74170;-61
2021/07/11 01:55:29;;;;;;;;;3.75;3.75;;;;;17.01;66.45;100888.47;4957287;28;45429;-60
2021/07/11 01:57:55;;;;;;;;;5.50;5.00;;;;;16.99;66.07;100887.81;4973604;28;45318;-60
2021/07/11 02:00:20;;;;;;;;;5.00;4.25;;;;;16.98;66.07;100883.50;4974118;28;56938;-61
2021/07/11 02:02:46;;;;;;;;;4.00;4.00;;;;;16.98;66.27;100880.03;4974421;28;48345;-60
2021/07/11 02:05:12;;;;;;;;;6.00;5.00;;;;;16.95;66.12;100875.88;4974544;28;45250;-60
2021/07/11 02:07:37;;;;;;;;;5.25;3.25;;;;;16.95;66.30;100889.13;4974809;28;45196;-61
2021/07/11 02:10:06;;;;;;;;;4.50;4.50;;;;;16.91;66.50;100880.66;4973961;28;61079;-59
2021/07/11 02:12:32;;;;;;;;;4.75;3.00;;;;;16.89;66.35;100887.97;4976799;27;45532;-60
2021/07/11 02:14:59;;;;;;;;;3.50;3.50;;;;;16.89;66.46;100887.16;4973293;28;45407;-60
2021/07/11 02:17:28;;;;;;;;;4.25;2.50;;;;;16.86;66.46;100880.34;4974670;28;45452;-61
2021/07/11 02:19:53;;;;;;;;;5.00;4.00;;;;;16.84;66.14;100882.34;4957025;28;45522;-59
2021/07/11 02:22:19;;;;;;;;;4.00;4.00;;;;;16.83;65.92;100878.03;4955964;28;75926;-61
2021/07/11 02:24:44;;;;;;;;;3.25;3.25;;;;;16.83;66.20;100882.53;4973044;28;45407;-60
2021/07/11 02:27:10;;;;;;;;;4.00;4.00;;;;;16.81;66.17;100880.03;4957152;28;45317;-60
2021/07/11 02:29:39;;;;;;;;;4.50;3.25;;;;;16.75;66.30;100886.84;4974429;28;45307;-60
2021/07/11 02:32:08;;;;;;;;;4.00;3.50;;;;;16.68;66.33;100898.31;4973073;28;46166;-60
2021/07/11 02:34:33;;;;;;;;;3.50;3.00;;;;;16.65;66.65;100880.06;4974387;28;45208;-60
2021/07/11 02:36:59;;;;;;;;;5.00;5.00;;;;;16.62;66.57;100875.91;4972052;28;68664;-60
2021/07/11 02:39:25;;;;;;;;;3.00;3.00;;;;;16.61;66.52;100884.88;4973096;28;45573;-60
2021/07/11 02:41:52;;;;;;;;;5.50;4.00;;;;;16.61;66.24;100884.88;4971887;28;71448;-60
2021/07/11 02:44:18;;;;;;;;;6.00;3.50;;;;;16.60;66.27;100883.19;4974188;28;45865;-60
2021/07/11 02:46:46;;;;;;;;;4.75;4.00;;;;;16.58;66.24;100883.38;4972803;28;45352;-60
2021/07/11 02:49:12;;;;;;;;;3.25;3.00;;;;;16.58;66.17;100883.38;4974228;28;45361;-60
2021/07/11 02:51:40;;;;;;;;;3.50;3.50;;;;;16.57;66.11;100895.00;4974018;28;45382;-60
2021/07/11 02:54:06;;;;;;;;;5.50;4.25;;;;;16.52;66.09;100893.81;4972901;28;45383;-60
2021/07/11 02:56:38;;;;;;;;;5.00;4.00;;;;;16.44;66.40;100890.16;4972650;28;45403;-60
2021/07/11 02:59:03;;;;;;;;;4.25;4.00;;;;;16.37;66.63;100891.00;4956970;28;45360;-60
2021/07/11 03:01:29;;;;;;;;;4.25;4.00;;;;;16.28;67.13;100893.66;4956686;28;45593;-61
2021/07/11 03:03:55;;;;;;;;;6.00;6.00;;;;;16.24;67.52;100894.16;4955822;28;58892;-61
2021/07/11 03:06:21;;;;;;;;;6.00;5.00;;;;;16.21;67.40;100894.47;4976712;28;45456;-60
2021/07/11 03:08:46;;;;;;;;;6.00;5.50;;;;;16.19;67.49;100893.81;4976881;28;45490;-61
2021/07/11 03:11:12;;;;;;;;;6.00;5.00;;;;;16.20;67.19;100901.59;4974415;28;71162;-60
2021/07/11 03:13:37;;;;;;;;;5.25;4.00;;;;;16.20;66.64;100904.25;4974606;28;67999;-61
2021/07/11 03:16:03;;;;;;;;;4.50;4.50;;;;;16.20;66.83;100906.09;4975179;28;48989;-60
2021/07/11 03:18:29;;;;;;;;;5.75;4.25;;;;;16.17;67.13;100905.41;4975489;28;45514;-60
2021/07/11 03:20:54;;;;;;;;;7.00;6.00;;;;;16.18;66.99;100900.94;4959038;28;46352;-60
2021/07/11 03:23:20;;;;;;;;;5.25;4.75;;;;;16.17;67.13;100905.41;4958432;28;66982;-61
2021/07/11 03:25:49;;;;;;;;;7.00;6.00;;;;;16.18;67.58;100914.19;4958261;28;69336;-61
2021/07/11 03:28:15;;;;;;;;;5.00;5.00;;;;;16.19;67.41;100904.41;4959491;28;45553;-59
2021/07/11 03:30:43;;;;;;;;;5.00;5.00;;;;;16.19;67.39;100910.53;4978082;27;45492;-60
2021/07/11 03:33:08;;;;;;;;;5.50;5.50;;;;;16.19;67.50;100907.88;4975182;28;46034;-60
2021/07/11 03:35:51;;;;;;;;;6.75;5.00;;;;;16.19;67.33;100904.41;4959212;28;45451;-60
2021/07/11 03:38:24;;;;;;;;;6.75;6.25;;;;;16.17;67.51;100908.06;4959083;28;45450;-61
2021/07/11 03:40:54;;;;;;;;;7.75;5.25;;;;;16.17;67.40;100916.03;4976201;28;51012;-60
2021/07/11 03:43:22;;;;;;;;;9.50;7.00;;;;;16.22;67.71;100920.00;4976346;28;45282;-59
2021/07/11 03:45:47;;;;;;;;;6.00;6.00;;;;;16.23;67.22;100929.63;4975184;28;45249;-60
2021/07/11 03:48:22;;;;;;;;;7.50;5.00;;;;;16.24;67.14;100915.38;4960393;28;45317;-60
2021/07/11 03:50:58;;;;;;;;;10.25;5.00;;;;;16.26;66.59;100924.00;4976211;28;45250;-60
2021/07/11 03:53:25;;;;;;;;;8.00;5.00;;;;;16.28;66.33;100924.66;4975152;28;45758;-60
2021/07/11 03:55:50;;;;;;;;;5.50;5.25;;;;;16.28;66.80;100924.66;4958798;28;47688;-60
2021/07/11 03:58:16;;;;;;;;;6.25;5.00;;;;;16.28;66.72;100922.00;4958076;28;63162;-61
2021/07/11 04:00:42;;;;;;;;;5.50;5.50;;;;;16.29;66.65;100921.00;4957782;28;72439;-61
2021/07/11 04:03:07;;;;;;;;;5.00;4.25;;;;;16.29;67.00;100923.66;4975366;28;65341;-60
2021/07/11 04:05:36;;;;;;;;;4.00;4.00;;;;;16.28;66.63;100924.66;4974107;28;62838;-60
2021/07/11 04:08:02;;;;;;;;;4.00;4.00;;;;;16.29;66.42;100935.09;4976052;28;45777;-61
2021/07/11 04:10:28;;;;;;;;;6.75;6.25;;;;;16.31;66.94;100926.97;4958426;28;46940;-60
2021/07/11 04:12:54;;;;;;;;;6.00;5.75;;;;;16.31;66.82;100926.97;4974677;28;45907;-61
2021/07/11 04:15:19;;;;;;;;;5.75;5.00;;;;;16.31;67.12;100934.94;4975967;28;45375;-60
2021/07/11 04:17:46;;;;;;;;;5.25;4.00;;;;;16.29;67.00;100934.28;4976423;28;45552;-60
2021/07/11 04:20:12;;;;;;;;;5.75;5.75;;;;;16.29;66.82;100931.63;4974327;28;46047;-60
2021/07/11 04:22:38;;;;;;;;;5.25;5.00;;;;;16.29;66.89;100936.91;4974434;28;46695;-61
2021/07/11 04:25:05;;;;;;;;;6.25;6.00;;;;;16.29;66.78;100935.09;4974574;28;45285;-60
2021/07/11 04:27:30;;;;;;;;;5.50;5.50;;;;;16.28;66.76;100933.44;4958275;28;45399;-60
2021/07/11 04:29:55;;;;;;;;;5.75;5.00;;;;;16.28;66.29;100929.97;4973804;28;65188;-60
2021/07/11 04:32:21;;;;;;;;;8.50;6.25;;;;;16.28;66.64;100929.97;4957934;28;55289;-60
2021/07/11 04:34:46;;;;;;;;;8.75;6.00;;;;;16.27;66.35;100930.94;4975934;28;45370;-60
2021/07/11 04:37:11;;;;;;;;;7.00;7.00;;;;;16.31;66.34;100937.59;4975775;28;45410;-60
2021/07/11 04:39:37;;;;;;;;;7.00;6.00;;;;;16.32;66.67;100934.75;4975546;28;45457;-60
2021/07/11 04:42:03;;;;;;;;;5.75;5.75;;;;;16.29;66.96;100936.91;4975722;28;47726;-60
2021/07/11 04:44:28;;;;;;;;;7.00;6.00;;;;;16.26;67.07;100932.75;4975551;28;45274;-60
2021/07/11 04:46:53;;;;;;;;;5.00;5.00;;;;;16.26;67.52;100939.91;4975719;28;45493;-60
2021/07/11 04:49:19;;;;;;;;;6.00;5.00;;;;;16.26;67.90;100945.19;4975545;28;46150;-60
2021/07/11 04:51:44;;;;;;;;;9.00;5.75;;;;;16.25;67.93;100933.75;4974068;28;45375;-60
2021/07/11 04:54:09;;;;;;;;;5.75;5.75;;;;;16.27;68.12;100939.72;4973471;28;65495;-60
2021/07/11 04:56:36;;;;;;;;;9.00;6.00;;;;;16.30;68.00;100941.22;4975549;28;45653;-60
2021/07/11 04:59:01;;;;;;;;;5.75;5.75;;;;;16.32;67.80;100941.91;4975383;28;45457;-60
2021/07/11 05:01:26;;;;;;;;;9.25;6.00;;;;;16.34;67.66;100945.22;4975325;28;45346;-60
2021/07/11 05:03:52;;;;;;;;;7.00;4.00;;;;;16.37;67.73;100944.88;4974636;28;61275;-60
2021/07/11 05:06:18;;;;;;;;;7.50;6.00;;;;;16.39;68.07;100944.72;4975329;28;45260;-60
2021/07/11 05:08:43;;;;;;;;;8.50;6.75;;;;;16.43;67.76;100946.03;4975232;28;45259;-60
2021/07/11 05:11:09;;;;;;;;;5.75;5.75;;;;;16.44;68.08;100953.00;4975155;28;45237;-60
2021/07/11 05:13:34;;;;;;;;;7.25;6.25;;;;;16.46;68.21;100954.47;4974824;28;51529;-61
2021/07/11 05:16:00;;;;;;;;;6.50;6.50;;;;;16.48;68.06;100951.69;4975383;28;45511;-60
2021/07/11 05:18:25;;;;;;;;;7.50;6.00;;;;;16.52;68.49;100950.38;4957638;28;45393;-60
2021/07/11 05:20:51;;;;;;;;;8.25;5.00;;;;;16.55;68.24;100951.84;4974920;28;45421;-60
2021/07/11 05:23:16;;;;;;;;;6.50;6.00;;;;;16.58;68.53;100948.88;4974532;28;59386;-60
2021/07/11 05:25:41;;;;;;;;;7.50;7.25;;;;;16.62;68.30;100947.53;4974266;28;64774;-60
2021/07/11 05:28:07;;;;;;;;;6.00;6.00;;;;;16.67;68.34;100952.38;4974268;28;46160;-60
2021/07/11 05:30:32;;;;;;;;;9.00;7.00;;;;;16.70;68.61;100947.53;4973702;28;45417;-60
2021/07/11 05:32:58;;;;;;;;;7.00;7.00;;;;;16.76;68.58;100946.03;4974429;28;61192;-60
2021/07/11 05:35:23;;;;;;;;;11.25;9.00;;;;;16.82;68.37;100944.56;4974630;28;53138;-60
2021/07/11 05:37:49;;;;;;;;;8.75;6.50;;;;;16.85;68.51;100950.34;4941473;28;46235;-60
2021/07/11 05:40:16;;;;;;;;;7.75;6.75;;;;;16.90;68.45;100952.50;4974534;28;51072;-60
2021/07/11 05:42:42;;;;;;;;;7.00;7.00;;;;;16.95;68.43;100952.84;4975037;28;45305;-60
2021/07/11 05:45:08;;;;;;;;;11.00;9.00;;;;;16.99;68.61;100959.47;4974826;28;45362;-60
2021/07/11 05:47:33;;;;;;;;;9.00;8.00;;;;;17.02;68.40;100964.44;4974609;28;47114;-59
2021/07/11 05:49:58;;;;;;;;;6.00;5.50;;;;;17.06;68.53;100949.84;4974002;28;68565;-61
2021/07/11 05:52:24;;;;;;;;;8.00;7.50;;;;;17.11;68.49;100959.13;4974093;28;60831;-60
2021/07/11 05:54:49;;;;;;;;;8.75;7.00;;;;;17.17;68.76;100958.47;4974915;28;45331;-60
2021/07/11 05:57:15;;;;;;;;;8.00;8.00;;;;;17.23;68.75;100952.47;4974500;28;45879;-60
2021/07/11 05:59:40;;;;;;;;;8.75;6.00;;;;;17.27;68.94;100959.09;4973873;28;68318;-60
2021/07/11 06:02:06;;;;;;;;;7.00;7.00;;;;;17.34;68.82;100953.94;4974102;28;60096;-60
2021/07/11 06:04:31;;;;;;;;;6.50;6.00;;;;;17.40;69.03;100961.22;4974867;28;45634;-60
2021/07/11 06:06:56;;;;;;;;;8.00;6.75;;;;;17.46;68.93;100963.19;4973555;28;73244;-60
2021/07/11 06:09:22;;;;;;;;;7.00;6.00;;;;;17.50;68.61;100961.00;4975965;27;64737;-60
2021/07/11 06:11:47;;;;;;;;;8.25;7.00;;;;;17.55;68.60;100960.50;4974502;28;48380;-60
2021/07/11 06:14:14;;;;;;;;;8.00;8.00;;;;;17.61;68.43;100963.31;4973754;28;68494;-60
2021/07/11 06:16:39;;;;;;;;;8.00;6.50;;;;;17.65;68.41;100961.97;4974529;28;46060;-60
2021/07/11 06:19:05;;;;;;;;;9.00;7.75;;;;;17.70;68.01;100964.13;4974363;28;45365;-60
2021/07/11 06:21:30;;;;;;;;;12.50;8.00;;;;;17.75;68.34;100960.94;4973974;28;47432;-60
2021/07/11 06:23:56;;;;;;;;;8.50;7.00;;;;;17.79;68.11;100956.94;4974424;28;45434;-60
2021/07/11 06:26:21;;;;;;;;;8.25;7.25;;;;;17.83;68.05;100957.41;4975698;28;66323;-60
2021/07/11 06:28:46;;;;;;;;;9.00;8.50;;;;;17.88;67.94;100966.53;4974354;28;45440;-59
2021/07/11 06:31:12;;;;;;;;;11.75;8.50;;;;;17.93;67.86;100964.19;4973923;28;57190;-59
2021/07/11 06:33:37;;;;;;;;;9.00;8.00;;;;;17.98;67.70;100960.16;4973868;28;61670;-59
2021/07/11 06:36:03;;;;;;;;;8.25;7.00;;;;;18.01;67.74;100959.84;4974174;28;45513;-60
2021/07/11 06:38:28;;;;;;;;;8.00;8.00;;;;;18.04;67.62;100962.97;4975068;28;45349;-60
2021/07/11 06:40:53;;;;;;;;;7.50;7.50;;;;;18.09;67.49;100963.28;4972911;28;60161;-60
2021/07/11 06:43:19;;;;;;;;;7.75;7.50;;;;;18.14;67.20;100964.59;4973385;28;67273;-59
2021/07/11 06:45:44;;;;;;;;;12.00;11.75;;;;;18.18;67.12;100953.41;4973683;28;58957;-60
2021/07/11 06:48:10;;;;;;;;;9.75;7.75;;;;;18.23;66.73;100958.22;4974189;28;45221;-60
2021/07/11 06:50:37;;;;;;;;;9.75;9.00;;;;;18.29;66.35;100957.47;4974260;28;45783;-61
2021/07/11 06:53:02;;;;;;;;;7.25;6.25;;;;;18.35;66.13;100950.66;4974112;28;45425;-59
2021/07/11 06:55:27;;;;;;;;;9.00;8.00;;;;;18.39;65.97;100957.28;4973790;28;45587;-60
2021/07/11 06:57:53;;;;;;;;;7.25;6.50;;;;;18.42;65.93;100954.25;4972928;28;69549;-60
2021/07/11 07:00:18;;;;;;;;;7.25;6.50;;;;;18.46;65.34;100952.91;4974204;28;45223;-60
2021/07/11 07:02:44;;;;;;;;;9.00;7.00;;;;;18.49;65.43;100955.19;4974000;28;45582;-60
2021/07/11 07:05:10;;;;;;;;;4.75;4.75;;;;;18.51;64.90;100957.66;4973689;28;46142;-59
2021/07/11 07:07:35;;;;;;;;;7.00;6.00;;;;;18.51;64.87;100957.66;4973752;28;45403;-60
2021/07/11 07:10:05;;;;;;;;;5.25;5.25;;;;;18.56;65.04;100954.47;4972625;28;45359;-59
2021/07/11 07:12:30;;;;;;;;;8.00;7.25;;;;;18.60;64.33;100945.13;4973783;28;45375;-60
2021/07/11 07:14:55;;;;;;;;;8.00;6.50;;;;;18.63;64.54;100966.06;4973592;28;45385;-60
2021/07/11 07:17:21;;;;;;;;;6.00;5.00;;;;;18.63;64.61;100956.25;4973723;28;45486;-60
2021/07/11 07:19:46;;;;;;;;;8.00;5.50;;;;;18.65;64.69;100961.38;4972728;28;63055;-60
2021/07/11 07:22:12;;;;;;;;;5.25;5.25;;;;;18.67;64.74;100959.38;4972936;28;64587;-60
2021/07/11 07:24:37;;;;;;;;;5.00;5.00;;;;;18.69;65.10;100952.03;4972637;28;70254;-61
2021/07/11 07:27:03;;;;;;;;;8.00;6.75;;;;;18.71;64.68;100962.50;4972462;28;69842;-60
2021/07/11 07:29:28;;;;;;;;;8.25;7.00;;;;;18.72;64.76;100962.31;4973687;28;45336;-59
2021/07/11 07:31:54;;;;;;;;;9.00;8.00;;;;;18.73;64.78;100958.66;4972575;28;66309;-59
2021/07/11 07:34:19;;;;;;;;;8.50;8.50;;;;;18.77;64.89;100953.81;4973492;28;45929;-60
2021/07/11 07:36:45;;;;;;;;;8.25;8.25;;;;;18.83;64.64;100956.56;4972379;28;71520;-60
2021/07/11 07:39:10;;;;;;;;;7.25;7.25;;;;;18.86;64.81;100959.88;4972705;28;62356;-60
2021/07/11 07:41:36;;;;;;;;;9.00;9.00;;;;;18.91;64.77;100960.16;4972326;28;68295;-60
2021/07/11 07:44:03;;;;;;;;;10.50;8.25;;;;;18.93;64.33;100955.50;4973232;28;45405;-60
2021/07/11 07:46:28;;;;;;;;;10.50;9.25;;;;;18.99;63.98;100968.13;4973073;28;45320;-60
2021/07/11 07:48:53;;;;;;;;;10.00;9.00;;;;;19.04;63.72;100957.75;4972369;28;63148;-60
2021/07/11 07:51:19;;;;;;;;;9.25;8.25;;;;;19.12;63.68;100956.81;4974766;28;57856;-60
2021/07/11 07:53:44;;;;;;;;;10.25;9.75;;;;;19.21;63.51;100961.06;4975051;28;72118;-60
2021/07/11 07:56:10;;;;;;;;;8.50;8.25;;;;;19.30;62.75;100953.00;4975022;28;72762;-59
2021/07/11 07:58:35;;;;;;;;;7.00;6.75;;;;;19.39;62.74;100957.19;4976322;28;45236;-60
2021/07/11 08:01:00;;;;;;;;;6.50;5.50;;;;;19.50;61.80;100961.25;4976118;28;45300;-60
2021/07/11 08:03:26;;;;;;;;;4.00;4.00;;;;;19.62;62.19;100962.41;4976050;28;45262;-60
2021/07/11 08:05:51;;;;;;;;;4.25;4.00;;;;;19.75;61.57;100956.44;4975075;28;65586;-60
2021/07/11 08:08:17;;;;;;;;;6.25;5.00;;;;;19.87;61.26;100954.09;4976347;28;45162;-60
2021/07/11 08:10:42;;;;;;;;;3.00;3.00;;;;;19.96;61.08;100958.34;4975052;28;65152;-60
2021/07/11 08:13:07;;;;;;;;;3.00;3.00;;;;;20.04;60.53;100959.25;4977041;28;45367;-60
2021/07/11 08:15:33;;;;;;;;;7.75;4.00;;;;;20.08;60.92;100960.53;4974977;28;72841;-60
2021/07/11 08:17:58;;;;;;;;;4.75;4.75;;;;;20.14;60.69;100957.94;4976085;28;45378;-60
2021/07/11 08:20:24;;;;;;;;;5.50;5.00;;;;;20.21;60.70;100962.50;4975117;28;62312;-60
2021/07/11 08:22:49;;;;;;;;;6.25;5.00;;;;;20.26;60.23;100960.91;4975744;28;48204;-60
2021/07/11 08:25:15;;;;;;;;;5.75;5.75;;;;;20.30;60.20;100964.84;4975713;28;45493;-60
2021/07/11 08:27:40;;;;;;;;;7.25;7.25;;;;;20.34;59.63;100959.97;4976076;28;45394;-59
2021/07/11 08:30:08;;;;;;;;;7.00;7.00;;;;;20.37;59.81;100964.09;4975876;28;45346;-60
2021/07/11 08:32:33;;;;;;;;;6.50;6.50;;;;;20.41;59.39;100954.69;4976048;28;51352;-60
2021/07/11 08:34:58;;;;;;;;;5.00;5.00;;;;;20.48;59.14;100960.09;4975825;28;45367;-60
2021/07/11 08:37:24;;;;;;;;;9.00;8.00;;;;;20.57;58.72;100957.09;4974787;28;67028;-60
2021/07/11 08:39:49;;;;;;;;;5.00;5.00;;;;;20.67;58.95;100962.09;4974756;28;67838;-60
2021/07/11 08:42:14;;;;;;;;;4.25;4.25;;;;;20.84;58.19;100964.53;4975269;28;55119;-59
2021/07/11 08:44:40;;;;;;;;;5.25;5.25;;;;;21.01;57.88;100962.41;4973657;28;66058;-60
2021/07/11 08:47:05;;;;;;;;;5.00;4.75;;;;;21.10;57.82;100958.56;4975232;28;60063;-60
2021/07/11 08:49:31;;;;;;;;;4.75;4.75;;;;;21.26;57.35;100961.91;4975776;28;45200;-60
2021/07/11 08:51:58;;;;;;;;;5.00;4.50;;;;;21.44;56.82;100948.88;4975515;28;46786;-60
2021/07/11 08:54:24;;;;;;;;;5.00;5.00;;;;;21.58;56.50;100959.63;4975447;28;45835;-60
2021/07/11 08:56:49;;;;;;;;;4.00;4.00;;;;;21.66;55.66;100946.13;4974954;28;57237;-60
2021/07/11 08:59:14;;;;;;;;;5.25;5.25;;;;;21.75;55.25;100947.59;4975557;28;45535;-60
2021/07/11 09:01:40;;;;;;;;;6.75;6.00;;;;;21.87;55.36;100942.50;4973658;28;67630;-60
2021/07/11 09:04:11;;;;;;;;;6.50;6.50;;;;;22.01;55.46;100942.50;4956329;28;73048;-60
2021/07/11 09:06:43;;;;;;;;;8.00;7.00;;;;;22.16;55.35;100947.72;4975082;28;45330;-59
2021/07/11 09:09:08;;;;;;;;;6.00;6.00;;;;;22.32;55.36;100949.16;4974739;28;45559;-61
2021/07/11 09:11:58;;;;;;;;;6.75;6.50;;;;;22.52;54.28;100949.22;4976823;27;45387;-59
2021/07/11 09:14:25;;;;;;;;;7.00;6.00;;;;;22.74;53.23;100947.16;4975275;28;45496;-60
2021/07/11 09:16:51;;;;;;;;;10.00;10.00;;;;;22.92;53.31;100954.53;4975062;28;45350;-60
2021/07/11 09:19:22;;;;;;;;;9.00;9.00;;;;;23.13;52.65;100947.31;4974974;28;45429;-60
2021/07/11 09:22:01;;;;;;;;;7.00;7.00;;;;;23.34;51.46;100950.75;4974685;28;46128;-61
2021/07/11 09:24:27;;;;;;;;;6.00;6.00;;;;;23.46;50.88;100945.59;4974771;28;45477;-60
2021/07/11 09:26:54;;;;;;;;;6.00;6.00;;;;;23.53;50.53;100949.88;4975535;28;45380;-61
2021/07/11 09:29:30;;;;;;;;;8.00;6.00;;;;;23.62;50.33;100957.69;4975085;28;45450;-61
2021/07/11 09:31:56;;;;;;;;;5.00;5.00;;;;;23.71;50.47;100957.22;4974813;28;46064;-60
2021/07/11 09:34:23;;;;;;;;;6.00;6.00;;;;;23.75;50.29;100954.97;4974783;28;45711;-60
2021/07/11 09:37:02;;;;;;;;;4.25;4.25;;;;;23.74;49.74;100953.31;4975129;28;45414;-60
2021/07/11 09:39:28;;;;;;;;;7.00;6.00;;;;;23.74;49.63;100958.69;4974069;28;45336;-60
2021/07/11 09:41:53;;;;;;;;;6.00;6.00;;;;;23.74;49.89;100950.63;4973680;28;75669;-61
2021/07/11 09:44:18;;;;;;;;;3.00;3.00;;;;;23.78;49.60;100946.47;4973993;28;71381;-60
2021/07/11 09:46:44;;;;;;;;;4.00;4.00;;;;;23.85;49.24;100949.94;4974334;28;61093;-60
2021/07/11 09:49:16;;;;;;;;;4.75;3.00;;;;;23.94;48.47;100950.53;4972949;28;63050;-60
2021/07/11 09:51:41;;;;;;;;;4.00;4.00;;;;;24.07;48.90;100943.47;4974771;28;45978;-60
2021/07/11 09:54:08;;;;;;;;;4.25;4.00;;;;;24.18;48.17;100950.00;4973995;28;69941;-60
2021/07/11 09:56:38;;;;;;;;;5.00;4.00;;;;;24.26;48.86;100949.75;4974798;28;45432;-60
2021/07/11 09:59:05;;;;;;;;;4.25;3.00;;;;;24.37;48.10;100946.34;4974595;28;45446;-60
2021/07/11 10:01:31;;;;;;;;;3.50;3.50;;;;;24.46;48.24;100949.59;4974447;28;46141;-60
2021/07/11 10:03:58;;;;;;;;;4.25;4.25;;;;;24.52;47.34;100947.88;4974019;28;45268;-59
2021/07/11 10:06:24;;;;;;;;;4.00;3.00;;;;;24.56;47.62;100946.41;4974588;28;45439;-60
2021/07/11 10:08:49;;;;;;;;;7.00;6.50;;;;;24.64;46.88;100950.69;4974696;28;45472;-60
2021/07/11 10:11:15;;;;;;;;;5.00;5.00;;;;;24.66;46.75;100941.34;4973577;28;69314;-60
2021/07/11 10:13:40;;;;;;;;;4.00;4.00;;;;;24.69;46.61;100930.16;4974033;28;45418;-60
2021/07/11 10:16:09;;;;;;;;;5.75;5.75;;;;;24.77;45.76;100925.59;4973585;28;66617;-60
2021/07/11 10:18:34;;;;;;;;;8.50;6.00;;;;;24.81;45.69;100927.59;4974425;28;45591;-61
2021/07/11 10:21:00;;;;;;;;;4.00;4.00;;;;;24.88;45.89;100930.25;4973075;28;70246;-60
2021/07/11 10:23:33;;;;;;;;;5.00;4.00;;;;;24.97;45.92;100930.75;4972616;28;56387;-60
2021/07/11 10:25:59;;;;;;;;;6.00;6.00;;;;;25.09;45.65;100933.53;4974188;28;45277;-60
2021/07/11 10:28:26;;;;;;;;;8.00;7.00;;;;;25.16;44.77;100934.28;4974451;28;45516;-60
2021/07/11 10:30:52;;;;;;;;;5.25;5.00;;;;;25.19;44.71;100929.25;4975882;27;46057;-60
2021/07/11 10:33:19;;;;;;;;;6.00;6.00;;;;;25.29;44.61;100931.44;4974305;28;45435;-60
2021/07/11 10:35:57;;;;;;;;;6.00;6.00;;;;;25.36;43.99;100925.97;4974447;28;45347;-60
2021/07/11 10:38:39;;;;;;;;;7.00;5.25;;;;;25.41;43.95;100930.69;4974297;28;45271;-60
2021/07/11 10:41:31;;;;;;;;;8.75;8.75;;;;;25.39;43.96;100928.22;4975579;28;46328;-60
2021/07/11 10:44:16;;;;;;;;;9.00;7.00;;;;;25.32;44.03;100931.00;4977355;28;45760;-60
2021/07/11 10:46:56;;;;;;;;;5.25;4.50;;;;;25.31;44.16;100931.22;4973066;28;45501;-60
2021/07/11 10:49:24;;;;;;;;;5.00;5.00;;;;;25.26;44.19;100936.44;4974350;28;45230;-60
2021/07/11 10:51:57;;;;;;;;;6.75;6.00;;;;;25.25;43.99;100929.41;4973910;28;45975;-60
2021/07/11 10:54:26;;;;;;;;;5.00;5.00;;;;;25.29;43.44;100920.69;4974046;28;45741;-59
2021/07/11 10:56:52;;;;;;;;;7.00;7.00;;;;;25.38;43.63;100925.78;4973984;28;45337;-60
2021/07/11 10:59:43;;;;;;;;;4.00;4.00;;;;;25.50;43.96;100931.22;4974032;28;45373;-60
2021/07/11 11:02:24;;;;;;;;;4.75;4.25;;;;;25.60;43.16;100924.25;4975048;28;46144;-60
2021/07/11 11:04:59;;;;;;;;;3.25;3.25;;;;;25.76;41.98;100922.78;4973710;28;45902;-60
2021/07/11 11:07:24;;;;;;;;;4.00;4.00;;;;;25.87;41.24;100917.69;4973834;28;45325;-60
2021/07/11 11:09:50;;;;;;;;;6.75;5.25;;;;;25.94;41.61;100923.81;4972915;28;61218;-60
2021/07/11 11:12:26;;;;;;;;;5.75;5.75;;;;;25.98;40.76;100910.69;4975609;28;45411;-60
2021/07/11 11:14:54;;;;;;;;;4.00;4.00;;;;;26.02;41.61;100915.41;4972231;28;45861;-60
2021/07/11 11:17:35;;;;;;;;;3.50;3.50;;;;;26.12;40.61;100908.63;4975294;28;45164;-60
2021/07/11 11:20:08;;;;;;;;;3.00;3.00;;;;;26.20;40.59;100909.13;4973475;28;45361;-62
2021/07/11 11:22:34;;;;;;;;;3.25;3.25;;;;;26.35;41.33;100913.28;4973126;28;46127;-60